Buntingford, United Kingdom
Current Conditions -  °F | °C
As of 1:50 AM on Sunday 23 Nov 2014 (Local Time) from EGSS Reporting Station
Light Rain Light Rain  
Wind Chill: 54°   Ceiling: 100
Heat Index: 54°   Visibility: 1.2mi
Dew Point: 54°   Wind: 6mph
Humidity: 100%   Direction: 320°NW
Pressure: 29.97"   Gusts: NA
Location:  51.95°N, 0.02°W
Report Text: EGSS 230150Z 32005KT 2000 -RA BKN001 12/12 Q1015
Loading
Personal Weather Stations






























Interactive Weather Map New forecast layout! Learn more

10-Day Weather Forecast

Advertisements
Track Severe Weather on mobile